sensor_id;sensor_type;location;lat;lon;timestamp;pressure;altitude;pressure_sealevel;temperature;humidity
46267;BME280;31998;48.798;15.066;2022-12-07T00:01:40;95555.66;;;0.87;100.00
46267;BME280;31998;48.798;15.066;2022-12-07T00:04:07;95554.84;;;0.87;100.00
46267;BME280;31998;48.798;15.066;2022-12-07T00:06:43;95550.00;;;0.84;100.00
46267;BME280;31998;48.798;15.066;2022-12-07T00:09:12;95551.63;;;0.85;100.00
46267;BME280;31998;48.798;15.066;2022-12-07T00:11:38;95546.31;;;0.85;100.00
46267;BME280;31998;48.798;15.066;2022-12-07T00:14:07;95556.72;;;0.86;100.00
46267;BME280;31998;48.798;15.066;2022-12-07T00:16:35;95539.41;;;0.84;100.00
46267;BME280;31998;48.798;15.066;2022-12-07T00:19:02;95545.50;;;0.84;100.00
46267;BME280;31998;48.798;15.066;2022-12-07T00:21:33;95544.25;;;0.87;100.00
46267;BME280;31998;48.798;15.066;2022-12-07T00:23:59;95551.28;;;0.93;100.00
46267;BME280;31998;48.798;15.066;2022-12-07T00:26:29;95545.97;;;0.93;100.00
46267;BME280;31998;48.798;15.066;2022-12-07T00:28:58;95539.78;;;0.87;100.00
46267;BME280;31998;48.798;15.066;2022-12-07T00:31:29;95543.78;;;0.90;100.00
46267;BME280;31998;48.798;15.066;2022-12-07T00:33:55;95535.28;;;0.88;100.00
46267;BME280;31998;48.798;15.066;2022-12-07T00:36:22;95548.28;;;0.89;100.00
46267;BME280;31998;48.798;15.066;2022-12-07T00:38:48;95537.69;;;0.89;100.00
46267;BME280;31998;48.798;15.066;2022-12-07T00:41:18;95547.47;;;0.89;100.00
46267;BME280;31998;48.798;15.066;2022-12-07T00:43:45;95538.97;;;0.87;100.00
46267;BME280;31998;48.798;15.066;2022-12-07T00:46:12;95542.66;;;0.86;100.00
46267;BME280;31998;48.798;15.066;2022-12-07T00:48:38;95546.78;;;0.81;100.00
46267;BME280;31998;48.798;15.066;2022-12-07T00:51:04;95545.50;;;0.84;100.00
46267;BME280;31998;48.798;15.066;2022-12-07T00:53:30;95544.25;;;0.87;100.00
46267;BME280;31998;48.798;15.066;2022-12-07T00:55:56;95542.66;;;0.86;100.00
46267;BME280;31998;48.798;15.066;2022-12-07T00:58:22;95549.81;;;0.85;100.00
46267;BME280;31998;48.798;15.066;2022-12-07T01:00:48;95554.84;;;0.87;100.00
46267;BME280;31998;48.798;15.066;2022-12-07T01:03:14;95554.06;;;0.86;100.00
46267;BME280;31998;48.798;15.066;2022-12-07T01:05:49;95545.31;;;0.86;100.00
46267;BME280;31998;48.798;15.066;2022-12-07T01:08:15;95556.91;;;0.85;100.00
46267;BME280;31998;48.798;15.066;2022-12-07T01:10:40;95554.50;;;0.83;100.00
46267;BME280;31998;48.798;15.066;2022-12-07T01:13:05;95554.50;;;0.83;100.00
46267;BME280;31998;48.798;15.066;2022-12-07T01:15:31;95541.13;;;0.78;100.00
46267;BME280;31998;48.798;15.066;2022-12-07T01:17:56;95549.19;;;0.83;100.00
46267;BME280;31998;48.798;15.066;2022-12-07T01:20:22;95550.25;;;0.82;100.00
46267;BME280;31998;48.798;15.066;2022-12-07T01:22:47;95552.91;;;0.82;100.00
46267;BME280;31998;48.798;15.066;2022-12-07T01:25:12;95549.19;;;0.83;100.00
46267;BME280;31998;48.798;15.066;2022-12-07T01:27:38;95548.41;;;0.82;100.00
46267;BME280;31998;48.798;15.066;2022-12-07T01:30:05;95552.66;;;0.84;100.00
46267;BME280;31998;48.798;15.066;2022-12-07T01:32:32;95555.31;;;0.84;100.00
46267;BME280;31998;48.798;15.066;2022-12-07T01:34:57;95553.69;;;0.82;100.00
46267;BME280;31998;48.798;15.066;2022-12-07T01:37:23;95550.25;;;0.82;100.00
46267;BME280;31998;48.798;15.066;2022-12-07T01:39:50;95549.19;;;0.83;100.00
46267;BME280;31998;48.798;15.066;2022-12-07T01:42:16;95540.22;;;0.84;100.00
46267;BME280;31998;48.798;15.066;2022-12-07T01:47:53;95538.38;;;0.85;100.00
46267;BME280;31998;48.798;15.066;2022-12-07T01:50:21;95532.28;;;0.84;100.00
46267;BME280;31998;48.798;15.066;2022-12-07T01:52:50;95535.16;;;0.82;100.00
46267;BME280;31998;48.798;15.066;2022-12-07T01:55:17;95525.59;;;0.81;100.00
46267;BME280;31998;48.798;15.066;2022-12-07T01:57:49;95526.78;;;0.74;100.00
46267;BME280;31998;48.798;15.066;2022-12-07T02:00:16;95531.13;;;0.80;100.00
46267;BME280;31998;48.798;15.066;2022-12-07T02:02:53;95526.66;;;0.80;100.00
46267;BME280;31998;48.798;15.066;2022-12-07T02:05:19;95525.03;;;0.79;100.00
46267;BME280;31998;48.798;15.066;2022-12-07T02:07:47;95528.72;;;0.78;100.00
46267;BME280;31998;48.798;15.066;2022-12-07T02:12:38;95529.28;;;0.80;100.00
46267;BME280;31998;48.798;15.066;2022-12-07T02:15:04;95512.59;;;0.80;100.00
46267;BME280;31998;48.798;15.066;2022-12-07T02:20:19;95513.41;;;0.80;100.00
46267;BME280;31998;48.798;15.066;2022-12-07T02:28:19;95518.69;;;0.80;100.00
46267;BME280;31998;48.798;15.066;2022-12-07T02:30:52;95513.84;;;0.77;100.00
46267;BME280;31998;48.798;15.066;2022-12-07T02:33:27;95515.50;;;0.78;100.00
46267;BME280;31998;48.798;15.066;2022-12-07T02:36:02;95512.59;;;0.80;100.00
46267;BME280;31998;48.798;15.066;2022-12-07T02:38:40;95515.50;;;0.78;100.00
46267;BME280;31998;48.798;15.066;2022-12-07T02:41:23;95506.63;;;0.73;100.00
46267;BME280;31998;48.798;15.066;2022-12-07T02:43:54;95502.13;;;0.73;100.00
46267;BME280;31998;48.798;15.066;2022-12-07T02:46:23;95500.53;;;0.72;100.00
46267;BME280;31998;48.798;15.066;2022-12-07T02:48:51;95504.91;;;0.78;100.00
46267;BME280;31998;48.798;15.066;2022-12-07T02:51:18;95519.50;;;0.81;100.00
46267;BME280;31998;48.798;15.066;2022-12-07T02:53:44;95509.34;;;0.78;100.00
46267;BME280;31998;48.798;15.066;2022-12-07T02:56:20;95513.41;;;0.80;100.00
46267;BME280;31998;48.798;15.066;2022-12-07T03:07:49;95511.00;;;0.79;100.00
46267;BME280;31998;48.798;15.066;2022-12-07T03:15:33;95510.19;;;0.78;100.00
46267;BME280;31998;48.798;15.066;2022-12-07T03:18:02;95513.03;;;0.77;100.00
46267;BME280;31998;48.798;15.066;2022-12-07T03:20:29;95508.56;;;0.77;100.00
46267;BME280;31998;48.798;15.066;2022-12-07T03:22:57;95500.53;;;0.72;100.00
46267;BME280;31998;48.798;15.066;2022-12-07T03:25:24;95497.63;;;0.74;100.00
46267;BME280;31998;48.798;15.066;2022-12-07T03:28:02;95501.41;;;0.78;100.00
46267;BME280;31998;48.798;15.066;2022-12-07T03:30:35;95489.94;;;0.72;100.00
46267;BME280;31998;48.798;15.066;2022-12-07T03:33:10;95497.97;;;0.77;100.00
46267;BME280;31998;48.798;15.066;2022-12-07T03:35:43;95494.75;;;0.75;100.00
46267;BME280;31998;48.798;15.066;2022-12-07T03:38:23;95487.84;;;0.74;100.00
46267;BME280;31998;48.798;15.066;2022-12-07T03:41:24;95493.47;;;0.78;100.00
46267;BME280;31998;48.798;15.066;2022-12-07T03:43:50;95491.06;;;0.76;100.00
46267;BME280;31998;48.798;15.066;2022-12-07T03:46:20;95495.09;;;0.79;100.00
46267;BME280;31998;48.798;15.066;2022-12-07T03:51:33;95494.75;;;0.75;100.00
46267;BME280;31998;48.798;15.066;2022-12-07T03:54:09;95499.00;;;0.76;100.00
46267;BME280;31998;48.798;15.066;2022-12-07T03:56:36;95496.34;;;0.76;100.00
46267;BME280;31998;48.798;15.066;2022-12-07T03:59:02;95502.47;;;0.77;100.00
46267;BME280;31998;48.798;15.066;2022-12-07T04:01:28;95502.47;;;0.77;100.00
46267;BME280;31998;48.798;15.066;2022-12-07T04:03:54;95499.00;;;0.76;100.00
46267;BME280;31998;48.798;15.066;2022-12-07T04:06:19;95488.28;;;0.71;100.00
46267;BME280;31998;48.798;15.066;2022-12-07T04:08:44;95498.69;;;0.73;100.00
46267;BME280;31998;48.798;15.066;2022-12-07T04:11:10;95492.56;;;0.72;100.00
46267;BME280;31998;48.798;15.066;2022-12-07T04:13:35;95501.31;;;0.73;100.00
46267;BME280;31998;48.798;15.066;2022-12-07T04:16:21;95493.59;;;0.71;100.00
46267;BME280;31998;48.798;15.066;2022-12-07T04:18:46;95491.78;;;0.72;100.00
46267;BME280;31998;48.798;15.066;2022-12-07T04:21:11;95486.47;;;0.72;100.00
46267;BME280;31998;48.798;15.066;2022-12-07T04:23:37;95486.69;;;0.70;100.00
46267;BME280;31998;48.798;15.066;2022-12-07T04:26:02;95485.66;;;0.71;100.00
46267;BME280;31998;48.798;15.066;2022-12-07T04:28:27;95494.63;;;0.70;100.00
46267;BME280;31998;48.798;15.066;2022-12-07T04:30:53;95479.34;;;0.72;100.00
46267;BME280;31998;48.798;15.066;2022-12-07T04:33:18;95492.66;;;0.77;100.00
46267;BME280;31998;48.798;15.066;2022-12-07T04:35:44;95483.72;;;0.78;100.00
46267;BME280;31998;48.798;15.066;2022-12-07T04:38:09;95488.66;;;0.75;100.00
46267;BME280;31998;48.798;15.066;2022-12-07T04:40:34;95483.72;;;0.78;100.00
46267;BME280;31998;48.798;15.066;2022-12-07T04:43:00;95482.06;;;0.77;100.00
46267;BME280;31998;48.798;15.066;2022-12-07T04:45:25;95478.84;;;0.75;100.00
46267;BME280;31998;48.798;15.066;2022-12-07T04:47:50;95482.78;;;0.73;100.00
46267;BME280;31998;48.798;15.066;2022-12-07T04:50:16;95495.22;;;0.72;100.00
46267;BME280;31998;48.798;15.066;2022-12-07T04:52:41;95486.25;;;0.73;100.00
46267;BME280;31998;48.798;15.066;2022-12-07T04:55:07;95485.19;;;0.74;100.00
46267;BME280;31998;48.798;15.066;2022-12-07T04:57:32;95479.91;;;0.74;100.00
46267;BME280;31998;48.798;15.066;2022-12-07T04:59:58;95479.91;;;0.74;100.00
46267;BME280;31998;48.798;15.066;2022-12-07T05:02:23;95476.44;;;0.74;100.00
46267;BME280;31998;48.798;15.066;2022-12-07T05:04:48;95484.63;;;0.72;100.00
46267;BME280;31998;48.798;15.066;2022-12-07T05:07:14;95480.13;;;0.73;100.00
46267;BME280;31998;48.798;15.066;2022-12-07T05:09:39;95466.44;;;0.64;100.00
46267;BME280;31998;48.798;15.066;2022-12-07T05:12:05;95467.22;;;0.65;100.00
46267;BME280;31998;48.798;15.066;2022-12-07T05:14:30;95475.28;;;0.70;100.00
46267;BME280;31998;48.798;15.066;2022-12-07T05:16:55;95475.06;;;0.71;100.00
46267;BME280;31998;48.798;15.066;2022-12-07T05:19:21;95471.41;;;0.72;100.00
46267;BME280;31998;48.798;15.066;2022-12-07T05:21:46;95469.53;;;0.73;100.00
46267;BME280;31998;48.798;15.066;2022-12-07T05:24:13;95468.75;;;0.72;100.00
46267;BME280;31998;48.798;15.066;2022-12-07T05:26:39;95470.59;;;0.72;100.00
46267;BME280;31998;48.798;15.066;2022-12-07T05:29:05;95468.16;;;0.70;100.00
46267;BME280;31998;48.798;15.066;2022-12-07T05:31:31;95469.19;;;0.69;100.00
46267;BME280;31998;48.798;15.066;2022-12-07T05:33:56;95470.25;;;0.68;100.00
46267;BME280;31998;48.798;15.066;2022-12-07T05:36:22;95464.81;;;0.63;100.00
46267;BME280;31998;48.798;15.066;2022-12-07T05:38:47;95466.66;;;0.63;100.00
46267;BME280;31998;48.798;15.066;2022-12-07T05:41:16;95480.84;;;0.68;100.00
46267;BME280;31998;48.798;15.066;2022-12-07T05:44:00;95472.53;;;0.65;100.00
46267;BME280;31998;48.798;15.066;2022-12-07T05:46:26;95474.38;;;0.64;100.00
46267;BME280;31998;48.798;15.066;2022-12-07T05:48:52;95474.16;;;0.66;100.00
46267;BME280;31998;48.798;15.066;2022-12-07T05:51:17;95474.97;;;0.66;100.00
46267;BME280;31998;48.798;15.066;2022-12-07T05:53:44;95473.38;;;0.65;100.00
46267;BME280;31998;48.798;15.066;2022-12-07T05:56:09;95477.38;;;0.68;100.00
46267;BME280;31998;48.798;15.066;2022-12-07T05:58:35;95477.03;;;0.64;100.00
46267;BME280;31998;48.798;15.066;2022-12-07T06:01:19;95478.66;;;0.65;100.00
46267;BME280;31998;48.798;15.066;2022-12-07T06:03:44;95473.38;;;0.65;100.00
46267;BME280;31998;48.798;15.066;2022-12-07T06:06:10;95476.34;;;0.69;100.00
46267;BME280;31998;48.798;15.066;2022-12-07T06:08:36;95482.91;;;0.66;100.00
46267;BME280;31998;48.798;15.066;2022-12-07T06:11:02;95480.25;;;0.66;100.00
46267;BME280;31998;48.798;15.066;2022-12-07T06:13:46;95483.97;;;0.65;100.00
46267;BME280;31998;48.798;15.066;2022-12-07T06:16:12;95485.56;;;0.66;100.00
46267;BME280;31998;48.798;15.066;2022-12-07T06:18:37;95475.41;;;0.63;100.00
46267;BME280;31998;48.798;15.066;2022-12-07T06:21:02;95477.03;;;0.64;100.00
46267;BME280;31998;48.798;15.066;2022-12-07T06:23:28;95471.16;;;0.62;100.00
46267;BME280;31998;48.798;15.066;2022-12-07T06:25:53;95474.28;;;0.59;100.00
46267;BME280;31998;48.798;15.066;2022-12-07T06:28:19;95482.31;;;0.64;100.00
46267;BME280;31998;48.798;15.066;2022-12-07T06:30:44;95487.16;;;0.67;100.00
46267;BME280;31998;48.798;15.066;2022-12-07T06:33:09;95478.66;;;0.65;100.00
46267;BME280;31998;48.798;15.066;2022-12-07T06:35:34;95470.72;;;0.65;100.00
46267;BME280;31998;48.798;15.066;2022-12-07T06:38:00;95474.03;;;0.72;100.00
46267;BME280;31998;48.798;15.066;2022-12-07T06:40:25;95475.66;;;0.73;100.00
46267;BME280;31998;48.798;15.066;2022-12-07T06:42:51;95475.66;;;0.73;100.00
46267;BME280;31998;48.798;15.066;2022-12-07T06:45:16;95476.44;;;0.74;100.00
46267;BME280;31998;48.798;15.066;2022-12-07T06:47:41;95483.47;;;0.68;100.00
46267;BME280;31998;48.798;15.066;2022-12-07T06:50:07;95478.84;;;0.75;100.00
46267;BME280;31998;48.798;15.066;2022-12-07T06:52:33;95479.53;;;0.71;100.00
46267;BME280;31998;48.798;15.066;2022-12-07T06:54:58;95489.13;;;0.72;100.00
46267;BME280;31998;48.798;15.066;2022-12-07T06:57:24;95488.28;;;0.71;100.00
46267;BME280;31998;48.798;15.066;2022-12-07T06:59:50;95486.38;;;0.67;100.00
46267;BME280;31998;48.798;15.066;2022-12-07T07:02:15;95492.91;;;0.64;100.00
46267;BME280;31998;48.798;15.066;2022-12-07T07:04:42;95490.84;;;0.66;100.00
46267;BME280;31998;48.798;15.066;2022-12-07T07:07:07;95488.09;;;0.61;100.00
46267;BME280;31998;48.798;15.066;2022-12-07T07:09:32;95496.16;;;0.66;100.00
46267;BME280;31998;48.798;15.066;2022-12-07T07:11:58;95488.78;;;0.68;100.00
46267;BME280;31998;48.798;15.066;2022-12-07T07:14:23;95493.03;;;0.69;100.00
46267;BME280;31998;48.798;15.066;2022-12-07T07:16:48;95486.13;;;0.68;100.00
46267;BME280;31998;48.798;15.066;2022-12-07T07:19:14;95481.41;;;0.70;100.00
46267;BME280;31998;48.798;15.066;2022-12-07T07:21:39;95483.97;;;0.65;100.00
46267;BME280;31998;48.798;15.066;2022-12-07T07:24:05;95494.56;;;0.65;100.00
46267;BME280;31998;48.798;15.066;2022-12-07T07:26:30;95493.72;;;0.65;100.00
46267;BME280;31998;48.798;15.066;2022-12-07T07:28:56;95495.47;;;0.59;100.00
46267;BME280;31998;48.798;15.066;2022-12-07T07:31:21;95491.78;;;0.60;100.00
46267;BME280;31998;48.798;15.066;2022-12-07T07:33:46;95498.22;;;0.64;100.00
46267;BME280;31998;48.798;15.066;2022-12-07T07:36:12;95506.38;;;0.63;100.00
46267;BME280;31998;48.798;15.066;2022-12-07T07:38:37;95510.66;;;0.64;100.00
46267;BME280;31998;48.798;15.066;2022-12-07T07:41:03;95509.84;;;0.63;100.00
46267;BME280;31998;48.798;15.066;2022-12-07T07:43:28;95504.91;;;0.55;100.00
46267;BME280;31998;48.798;15.066;2022-12-07T07:45:54;95515.94;;;0.52;100.00
46267;BME280;31998;48.798;15.066;2022-12-07T07:48:19;95511.00;;;0.56;100.00
46267;BME280;31998;48.798;15.066;2022-12-07T07:50:45;95507.56;;;0.55;100.00
46267;BME280;31998;48.798;15.066;2022-12-07T07:53:10;95513.88;;;0.54;100.00
46267;BME280;31998;48.798;15.066;2022-12-07T07:55:35;95518.16;;;0.55;100.00
46267;BME280;31998;48.798;15.066;2022-12-07T07:58:01;95526.09;;;0.55;100.00
46267;BME280;31998;48.798;15.066;2022-12-07T08:00:26;95520.31;;;0.58;100.00
46267;BME280;31998;48.798;15.066;2022-12-07T08:02:52;95516.31;;;0.56;100.00
46267;BME280;31998;48.798;15.066;2022-12-07T08:05:17;95525.84;;;0.57;100.00
46267;BME280;31998;48.798;15.066;2022-12-07T08:07:43;95526.78;;;0.62;100.00
46267;BME280;31998;48.798;15.066;2022-12-07T08:10:10;95525.28;;;0.66;100.00
46267;BME280;31998;48.798;15.066;2022-12-07T08:12:38;95523.75;;;0.70;100.00
46267;BME280;31998;48.798;15.066;2022-12-07T08:15:24;95521.59;;;0.67;100.00
46267;BME280;31998;48.798;15.066;2022-12-07T08:17:49;95506.28;;;0.69;100.00
46267;BME280;31998;48.798;15.066;2022-12-07T08:20:15;95518.34;;;0.77;100.00
46267;BME280;31998;48.798;15.066;2022-12-07T08:22:40;95515.50;;;0.78;100.00
46267;BME280;31998;48.798;15.066;2022-12-07T08:25:05;95522.72;;;0.83;100.00
46267;BME280;31998;48.798;15.066;2022-12-07T08:27:31;95520.06;;;0.95;100.00
46267;BME280;31998;48.798;15.066;2022-12-07T08:29:56;95514.66;;;0.90;100.00
46267;BME280;31998;48.798;15.066;2022-12-07T08:32:22;95528.78;;;1.07;100.00
46267;BME280;31998;48.798;15.066;2022-12-07T08:34:47;95511.41;;;1.11;100.00
46267;BME280;31998;48.798;15.066;2022-12-07T08:37:12;95517.97;;;0.97;100.00
46267;BME280;31998;48.798;15.066;2022-12-07T08:39:38;95532.47;;;1.06;100.00
46267;BME280;31998;48.798;15.066;2022-12-07T08:42:03;95528.19;;;1.17;100.00
46267;BME280;31998;48.798;15.066;2022-12-07T08:44:29;95533.31;;;1.35;100.00
46267;BME280;31998;48.798;15.066;2022-12-07T08:46:58;95527.13;;;1.58;100.00
46267;BME280;31998;48.798;15.066;2022-12-07T08:49:31;95531.19;;;1.49;100.00
46267;BME280;31998;48.798;15.066;2022-12-07T08:51:58;95533.19;;;1.70;100.00
46267;BME280;31998;48.798;15.066;2022-12-07T08:54:23;95527.97;;;1.75;100.00
46267;BME280;31998;48.798;15.066;2022-12-07T08:56:49;95528.44;;;1.72;100.00
46267;BME280;31998;48.798;15.066;2022-12-07T08:59:17;95526.13;;;1.76;100.00
46267;BME280;31998;48.798;15.066;2022-12-07T09:01:44;95524.34;;;1.81;100.00
46267;BME280;31998;48.798;15.066;2022-12-07T09:04:10;95518.75;;;1.78;100.00
46267;BME280;31998;48.798;15.066;2022-12-07T09:06:36;95518.59;;;1.84;100.00
46267;BME280;31998;48.798;15.066;2022-12-07T09:09:02;95518.25;;;1.81;100.00
46267;BME280;31998;48.798;15.066;2022-12-07T09:11:28;95508.78;;;2.02;100.00
46267;BME280;31998;48.798;15.066;2022-12-07T09:13:54;95506.63;;;1.99;100.00
46267;BME280;31998;48.798;15.066;2022-12-07T09:16:20;95503.84;;;2.22;100.00
46267;BME280;31998;48.798;15.066;2022-12-07T09:18:45;95480.00;;;2.27;100.00
46267;BME280;31998;48.798;15.066;2022-12-07T09:21:10;95478.84;;;2.40;100.00
46267;BME280;31998;48.798;15.066;2022-12-07T09:23:36;95467.59;;;2.33;100.00
46267;BME280;31998;48.798;15.066;2022-12-07T09:26:03;95462.13;;;2.39;100.00
46267;BME280;31998;48.798;15.066;2022-12-07T09:28:30;95450.72;;;2.22;100.00
46267;BME280;31998;48.798;15.066;2022-12-07T09:30:56;95434.50;;;2.40;100.00
46267;BME280;31998;48.798;15.066;2022-12-07T09:33:21;95437.94;;;2.58;100.00
46267;BME280;31998;48.798;15.066;2022-12-07T09:35:47;95440.84;;;2.56;100.00
46267;BME280;31998;48.798;15.066;2022-12-07T09:38:13;95429.97;;;2.80;100.00
46267;BME280;31998;48.798;15.066;2022-12-07T09:40:39;95426.44;;;3.18;100.00
46267;BME280;31998;48.798;15.066;2022-12-07T09:43:05;95418.97;;;2.93;100.00
46267;BME280;31998;48.798;15.066;2022-12-07T09:45:34;95420.63;;;3.21;100.00
46267;BME280;31998;48.798;15.066;2022-12-07T09:48:02;95430.69;;;3.19;100.00
46267;BME280;31998;48.798;15.066;2022-12-07T09:50:29;95429.22;;;3.28;100.00
46267;BME280;31998;48.798;15.066;2022-12-07T09:53:25;95426.31;;;3.57;100.00
46267;BME280;31998;48.798;15.066;2022-12-07T09:55:49;95429.34;;;3.16;100.00
46267;BME280;31998;48.798;15.066;2022-12-07T09:58:22;95429.91;;;3.45;100.00
46267;BME280;31998;48.798;15.066;2022-12-07T10:00:50;95403.25;;;3.67;100.00
46267;BME280;31998;48.798;15.066;2022-12-07T10:03:17;95432.22;;;3.64;100.00
46267;BME280;31998;48.798;15.066;2022-12-07T10:05:45;95432.47;;;3.62;100.00
46267;BME280;31998;48.798;15.066;2022-12-07T10:08:13;95421.03;;;3.94;100.00
46267;BME280;31998;48.798;15.066;2022-12-07T10:10:39;95421.63;;;4.01;100.00
46267;BME280;31998;48.798;15.066;2022-12-07T10:13:35;95438.19;;;3.76;100.00
46267;BME280;31998;48.798;15.066;2022-12-07T10:16:01;95432.31;;;3.74;100.00
46267;BME280;31998;48.798;15.066;2022-12-07T10:18:32;95430.69;;;3.41;100.00
46267;BME280;31998;48.798;15.066;2022-12-07T10:21:10;95426.06;;;3.31;100.00
46267;BME280;31998;48.798;15.066;2022-12-07T10:23:38;95425.66;;;3.44;100.00
46267;BME280;31998;48.798;15.066;2022-12-07T10:29:17;95422.78;;;3.24;100.00
46267;BME280;31998;48.798;15.066;2022-12-07T10:31:46;95420.56;;;3.16;100.00
46267;BME280;31998;48.798;15.066;2022-12-07T10:34:22;95420.03;;;3.14;100.00
46267;BME280;31998;48.798;15.066;2022-12-07T10:36:50;95414.31;;;3.27;100.00
46267;BME280;31998;48.798;15.066;2022-12-07T10:39:19;95409.19;;;3.47;100.00
46267;BME280;31998;48.798;15.066;2022-12-07T10:42:02;95410.59;;;3.55;100.00
46267;BME280;31998;48.798;15.066;2022-12-07T10:44:33;95415.59;;;3.51;100.00
46267;BME280;31998;48.798;15.066;2022-12-07T11:00:34;95398.41;;;3.91;100.00
46267;BME280;31998;48.798;15.066;2022-12-07T11:08:53;95406.28;;;3.22;100.00
46267;BME280;31998;48.798;15.066;2022-12-07T11:20:20;95394.53;;;3.18;100.00
46267;BME280;31998;48.798;15.066;2022-12-07T11:30:31;95383.06;;;4.51;100.00
46267;BME280;31998;48.798;15.066;2022-12-07T11:33:08;95383.19;;;4.81;100.00
46267;BME280;31998;48.798;15.066;2022-12-07T11:41:06;95386.47;;;4.41;100.00
46267;BME280;31998;48.798;15.066;2022-12-07T11:44:07;95376.28;;;4.28;100.00
46267;BME280;31998;48.798;15.066;2022-12-07T11:49:14;95373.00;;;4.16;100.00
46267;BME280;31998;48.798;15.066;2022-12-07T11:51:42;95382.78;;;4.05;100.00
46267;BME280;31998;48.798;15.066;2022-12-07T11:54:16;95381.25;;;3.77;100.00
46267;BME280;31998;48.798;15.066;2022-12-07T11:56:43;95376.94;;;3.71;100.00
46267;BME280;31998;48.798;15.066;2022-12-07T11:59:39;95387.59;;;3.44;100.00
46267;BME280;31998;48.798;15.066;2022-12-07T12:02:15;95382.00;;;3.40;100.00
46267;BME280;31998;48.798;15.066;2022-12-07T12:07:07;95384.28;;;3.32;100.00
46267;BME280;31998;48.798;15.066;2022-12-07T12:09:49;95382.63;;;3.20;100.00
46267;BME280;31998;48.798;15.066;2022-12-07T12:15:41;95379.63;;;3.17;100.00
46267;BME280;31998;48.798;15.066;2022-12-07T12:21:10;95384.69;;;2.91;100.00
46267;BME280;31998;48.798;15.066;2022-12-07T12:23:40;95388.13;;;2.92;100.00
46267;BME280;31998;48.798;15.066;2022-12-07T12:26:08;95395.41;;;2.75;100.00
46267;BME280;31998;48.798;15.066;2022-12-07T12:28:42;95388.59;;;2.84;100.00
46267;BME280;31998;48.798;15.066;2022-12-07T12:33:52;95382.22;;;2.63;100.00
46267;BME280;31998;48.798;15.066;2022-12-07T12:38:52;95380.38;;;2.41;100.00
46267;BME280;31998;48.798;15.066;2022-12-07T12:47:03;95380.06;;;2.21;100.00
46267;BME280;31998;48.798;15.066;2022-12-07T12:49:38;95386.19;;;2.22;100.00
46267;BME280;31998;48.798;15.066;2022-12-07T12:54:38;95376.88;;;2.19;100.00
46267;BME280;31998;48.798;15.066;2022-12-07T12:57:28;95385.34;;;2.16;100.00
46267;BME280;31998;48.798;15.066;2022-12-07T13:02:28;95373.84;;;2.10;100.00
46267;BME280;31998;48.798;15.066;2022-12-07T13:05:02;95369.00;;;2.07;100.00
46267;BME280;31998;48.798;15.066;2022-12-07T13:15:54;95374.28;;;2.24;100.00
46267;BME280;31998;48.798;15.066;2022-12-07T13:20:55;95380.59;;;2.18;100.00
46267;BME280;31998;48.798;15.066;2022-12-07T13:26:16;95382.72;;;2.21;100.00
46267;BME280;31998;48.798;15.066;2022-12-07T13:28:47;95375.28;;;2.18;100.00
46267;BME280;31998;48.798;15.066;2022-12-07T13:33:58;95378.91;;;2.12;100.00
46267;BME280;31998;48.798;15.066;2022-12-07T13:36:29;95383.78;;;2.20;100.00
46267;BME280;31998;48.798;15.066;2022-12-07T13:39:20;95386.69;;;2.18;100.00
46267;BME280;31998;48.798;15.066;2022-12-07T13:41:52;95381.56;;;2.12;100.00
46267;BME280;31998;48.798;15.066;2022-12-07T13:44:19;95367.03;;;1.98;100.00
46267;BME280;31998;48.798;15.066;2022-12-07T13:47:17;95388.09;;;2.04;100.00
46267;BME280;31998;48.798;15.066;2022-12-07T13:49:50;95379.75;;;1.96;100.00
46267;BME280;31998;48.798;15.066;2022-12-07T13:52:43;95390.09;;;1.97;100.00
46267;BME280;31998;48.798;15.066;2022-12-07T13:55:16;95381.25;;;1.92;100.00
46267;BME280;31998;48.798;15.066;2022-12-07T13:57:44;95385.28;;;1.94;100.00
46267;BME280;31998;48.798;15.066;2022-12-07T14:00:17;95383.50;;;2.00;100.00
46267;BME280;31998;48.798;15.066;2022-12-07T14:02:58;95386.56;;;1.92;100.00
46267;BME280;31998;48.798;15.066;2022-12-07T14:05:29;95385.44;;;1.87;100.00
46267;BME280;31998;48.798;15.066;2022-12-07T14:10:54;95387.53;;;1.85;100.00
46267;BME280;31998;48.798;15.066;2022-12-07T14:13:35;95384.81;;;1.80;100.00
46267;BME280;31998;48.798;15.066;2022-12-07T14:16:05;95374.34;;;1.74;100.00
46267;BME280;31998;48.798;15.066;2022-12-07T14:18:43;95378.06;;;1.73;100.00
46267;BME280;31998;48.798;15.066;2022-12-07T14:23:34;95368.75;;;1.70;100.00
46267;BME280;31998;48.798;15.066;2022-12-07T14:26:15;95371.94;;;1.72;100.00
46267;BME280;31998;48.798;15.066;2022-12-07T14:28:42;95368.56;;;1.60;100.00
46267;BME280;31998;48.798;15.066;2022-12-07T14:31:19;95372.75;;;1.56;100.00
46267;BME280;31998;48.798;15.066;2022-12-07T14:33:46;95380.78;;;1.61;100.00
46267;BME280;31998;48.798;15.066;2022-12-07T14:36:13;95379.66;;;1.57;100.00
46267;BME280;31998;48.798;15.066;2022-12-07T14:38:39;95383.13;;;1.57;100.00
46267;BME280;31998;48.798;15.066;2022-12-07T14:41:09;95380.94;;;1.54;100.00
46267;BME280;31998;48.798;15.066;2022-12-07T14:43:55;95378.19;;;1.49;100.00
46267;BME280;31998;48.798;15.066;2022-12-07T14:46:21;95375.63;;;1.54;100.00
46267;BME280;31998;48.798;15.066;2022-12-07T14:48:46;95378.19;;;1.49;100.00
46267;BME280;31998;48.798;15.066;2022-12-07T14:51:12;95365.91;;;1.43;100.00
46267;BME280;31998;48.798;15.066;2022-12-07T14:53:40;95382.69;;;1.49;100.00
46267;BME280;31998;48.798;15.066;2022-12-07T14:56:06;95377.56;;;1.42;100.00
46267;BME280;31998;48.798;15.066;2022-12-07T14:58:32;95379.25;;;1.48;100.00
46267;BME280;31998;48.798;15.066;2022-12-07T15:00:58;95384.47;;;1.43;100.00
46267;BME280;31998;48.798;15.066;2022-12-07T15:03:23;95387.34;;;1.42;100.00